createdAt,value
2022-12-14T00:00:02.862Z,-1.76
2022-12-14T00:01:03.101Z,-1.72
2022-12-14T00:02:02.915Z,-1.78
2022-12-14T00:03:03.439Z,-1.69
2022-12-14T00:04:02.845Z,-1.9
2022-12-14T00:05:02.867Z,-1.66
2022-12-14T00:06:02.866Z,-1.68
2022-12-14T00:07:02.882Z,-1.61
2022-12-14T00:08:02.917Z,-1.64
2022-12-14T00:09:02.884Z,-1.61
2022-12-14T00:10:02.863Z,-1.63
2022-12-14T00:11:02.922Z,-1.72
2022-12-14T00:12:05.878Z,-1.66
2022-12-14T00:13:02.901Z,-1.61
2022-12-14T00:14:02.910Z,-1.68
2022-12-14T00:15:02.949Z,-1.66
2022-12-14T00:16:03.262Z,-1.74
2022-12-14T00:17:02.862Z,-1.61
2022-12-14T00:18:02.970Z,-1.68
2022-12-14T00:19:02.862Z,-1.69
2022-12-14T00:20:02.887Z,-1.72
2022-12-14T00:21:02.894Z,-1.71
2022-12-14T00:22:02.888Z,-1.66
2022-12-14T00:23:06.022Z,-1.64
2022-12-14T00:24:02.910Z,-1.61
2022-12-14T00:25:02.884Z,-1.61
2022-12-14T00:26:02.866Z,-1.63
2022-12-14T00:27:02.892Z,-1.61
2022-12-14T00:28:03.430Z,-1.57
2022-12-14T00:29:02.912Z,-1.64
2022-12-14T00:30:02.944Z,-1.56
2022-12-14T00:31:03.457Z,-1.63
2022-12-14T00:32:02.881Z,-1.64
2022-12-14T00:33:02.923Z,-1.66
2022-12-14T00:34:07.031Z,-1.6
2022-12-14T00:35:02.916Z,-1.71
2022-12-14T00:36:02.926Z,-1.57
2022-12-14T00:37:02.903Z,-1.64
2022-12-14T00:38:02.935Z,-1.61
2022-12-14T00:39:03.028Z,-1.61
2022-12-14T00:40:02.906Z,-1.51
2022-12-14T00:41:02.905Z,-1.6
2022-12-14T00:42:03.069Z,-1.69
2022-12-14T00:43:02.951Z,-1.72
2022-12-14T00:44:02.905Z,-1.71
2022-12-14T00:45:05.707Z,-1.78
2022-12-14T00:46:03.157Z,-1.79
2022-12-14T00:47:02.913Z,-1.75
2022-12-14T00:48:02.943Z,-1.69
2022-12-14T00:49:02.913Z,-1.72
2022-12-14T00:50:05.997Z,-1.66
2022-12-14T00:51:02.974Z,-1.69
2022-12-14T00:52:02.944Z,-1.61
2022-12-14T00:53:02.932Z,-1.6
2022-12-14T00:54:02.947Z,-1.72
2022-12-14T00:55:02.986Z,-1.68
2022-12-14T00:56:05.938Z,-1.72
2022-12-14T00:57:02.942Z,-1.71
2022-12-14T00:58:02.982Z,-1.64
2022-12-14T00:59:02.942Z,-1.68
2022-12-14T01:00:02.951Z,-1.69
2022-12-14T01:01:06.003Z,-1.75
2022-12-14T01:02:03.396Z,-1.63
2022-12-14T01:03:02.953Z,-1.66
2022-12-14T01:04:03.110Z,-1.71
2022-12-14T01:05:02.954Z,-1.72
2022-12-14T01:06:02.991Z,-1.75
2022-12-14T01:07:05.846Z,-1.68
2022-12-14T01:08:02.971Z,-1.68
2022-12-14T01:09:02.962Z,-1.69
2022-12-14T01:10:02.955Z,-1.68
2022-12-14T01:11:02.994Z,-1.64
2022-12-14T01:12:06.098Z,-1.63
2022-12-14T01:13:02.990Z,-1.72
2022-12-14T01:14:02.964Z,-1.74
2022-12-14T01:15:02.945Z,-1.81
2022-12-14T01:16:03.118Z,-1.72
2022-12-14T01:17:02.983Z,-1.69
2022-12-14T01:18:06.095Z,-1.69
2022-12-14T01:19:02.967Z,-1.69
2022-12-14T01:20:03.995Z,-1.72
2022-12-14T01:21:02.975Z,-1.71
2022-12-14T01:22:02.983Z,-1.75
2022-12-14T01:23:06.056Z,-1.84
2022-12-14T01:24:02.975Z,-1.76
2022-12-14T01:25:02.977Z,-1.72
2022-12-14T01:26:02.971Z,-1.87
2022-12-14T01:27:03.026Z,-1.74
2022-12-14T01:28:02.984Z,-1.72
2022-12-14T01:29:02.975Z,-1.68
2022-12-14T01:30:02.979Z,-1.79
2022-12-14T01:31:03.218Z,-1.69
2022-12-14T01:32:02.982Z,-1.72
2022-12-14T01:33:03.004Z,-1.71
2022-12-14T01:34:05.999Z,-1.78
2022-12-14T01:35:02.980Z,-1.75
2022-12-14T01:36:02.999Z,-1.81
2022-12-14T01:37:03.005Z,-1.87
2022-12-14T01:38:03.387Z,-1.86
2022-12-14T01:39:03.012Z,-1.84
2022-12-14T01:40:02.986Z,-1.72
2022-12-14T01:41:03.033Z,-1.82
2022-12-14T01:42:02.990Z,-1.71
2022-12-14T01:43:03.043Z,-1.74
2022-12-14T01:44:02.993Z,-1.81
2022-12-14T01:45:06.043Z,-1.78
2022-12-14T01:46:03.063Z,-1.66
2022-12-14T01:47:06.169Z,-1.68
2022-12-14T01:48:03.068Z,-1.84
2022-12-14T01:49:03.050Z,-1.84
2022-12-14T01:50:03.023Z,-1.78
2022-12-14T01:51:03.023Z,-1.81
2022-12-14T01:52:03.018Z,-1.72
2022-12-14T01:53:03.007Z,-1.75
2022-12-14T01:54:03.038Z,-1.74
2022-12-14T01:55:03.008Z,-1.81
2022-12-14T01:56:06.061Z,-1.75
2022-12-14T01:57:03.026Z,-1.74
2022-12-14T01:58:03.046Z,-1.76
2022-12-14T01:59:03.089Z,-1.79
2022-12-14T02:00:10.076Z,-1.79
2022-12-14T02:01:03.034Z,-1.84
2022-12-14T02:02:03.381Z,-1.76
2022-12-14T02:03:03.472Z,-1.79
2022-12-14T02:04:03.042Z,-1.76
2022-12-14T02:05:03.074Z,-1.78
2022-12-14T02:06:03.029Z,-1.78
2022-12-14T02:07:06.940Z,-1.78
2022-12-14T02:08:03.043Z,-1.82
2022-12-14T02:09:03.045Z,-1.84
2022-12-14T02:10:03.064Z,-1.79
2022-12-14T02:11:03.049Z,-1.78
2022-12-14T02:12:03.021Z,-1.72
2022-12-14T02:13:03.041Z,-1.79
2022-12-14T02:14:03.056Z,-1.84
2022-12-14T02:15:03.073Z,-1.81
2022-12-14T02:16:03.234Z,-1.78
2022-12-14T02:17:03.053Z,-1.79
2022-12-14T02:18:03.067Z,-1.75
2022-12-14T02:19:03.044Z,-1.74
2022-12-14T02:20:03.057Z,-1.71
2022-12-14T02:21:03.213Z,-1.76
2022-12-14T02:22:03.099Z,-1.71
2022-12-14T02:23:03.056Z,-1.75
2022-12-14T02:24:03.068Z,-1.69
2022-12-14T02:25:03.113Z,-1.64
2022-12-14T02:26:03.106Z,-1.69
2022-12-14T02:27:03.112Z,-1.78
2022-12-14T02:28:03.071Z,-1.63
2022-12-14T02:29:03.102Z,-1.66
2022-12-14T02:30:03.095Z,-1.71
2022-12-14T02:31:03.305Z,-1.71
2022-12-14T02:32:03.077Z,-1.64
2022-12-14T02:33:03.064Z,-1.61
2022-12-14T02:34:03.105Z,-1.64
2022-12-14T02:35:03.093Z,-1.89
2022-12-14T02:36:03.131Z,-1.58
2022-12-14T02:37:03.280Z,-1.64
2022-12-14T02:38:03.090Z,-1.72
2022-12-14T02:39:06.351Z,-1.78
2022-12-14T02:40:03.093Z,-1.71
2022-12-14T02:41:03.091Z,-1.58
2022-12-14T02:42:03.123Z,-1.71
2022-12-14T02:43:03.099Z,-1.75
2022-12-14T02:44:03.112Z,-1.68
2022-12-14T02:45:03.092Z,-1.61
2022-12-14T02:46:03.109Z,-1.69
2022-12-14T02:47:03.406Z,-1.6
2022-12-14T02:48:03.113Z,-1.56
2022-12-14T02:49:03.121Z,-1.66
2022-12-14T02:50:03.304Z,-1.6
2022-12-14T02:51:03.173Z,-1.66
2022-12-14T02:52:03.105Z,-1.57
2022-12-14T02:53:03.133Z,-1.69
2022-12-14T02:54:03.144Z,-1.63
2022-12-14T02:55:03.112Z,-1.51
2022-12-14T02:56:03.114Z,-1.54
2022-12-14T02:57:03.162Z,-1.61
2022-12-14T02:58:03.152Z,-1.71
2022-12-14T02:59:03.184Z,-1.61
2022-12-14T03:00:03.115Z,-1.66
2022-12-14T03:01:06.187Z,-1.6
2022-12-14T03:02:03.680Z,-1.57
2022-12-14T03:03:03.401Z,-1.63
2022-12-14T03:04:03.156Z,-1.57
2022-12-14T03:05:03.361Z,-1.51
2022-12-14T03:06:03.112Z,-1.57
2022-12-14T03:07:03.144Z,-1.57
2022-12-14T03:08:03.141Z,-1.63
2022-12-14T03:09:03.202Z,-1.58
2022-12-14T03:10:03.139Z,-1.58
2022-12-14T03:11:03.155Z,-1.54
2022-12-14T03:12:06.271Z,-1.54
2022-12-14T03:13:03.147Z,-1.66
2022-12-14T03:14:03.177Z,-1.57
2022-12-14T03:15:03.188Z,-1.57
2022-12-14T03:16:03.316Z,-1.46
2022-12-14T03:17:06.327Z,-1.53
2022-12-14T03:18:03.152Z,-1.61
2022-12-14T03:19:03.219Z,-1.51
2022-12-14T03:20:03.169Z,-1.53
2022-12-14T03:21:03.164Z,-1.56
2022-12-14T03:22:03.241Z,-1.56
2022-12-14T03:23:06.022Z,-1.5
2022-12-14T03:24:03.194Z,-1.56
2022-12-14T03:25:03.196Z,-1.61
2022-12-14T03:26:03.148Z,-1.53
2022-12-14T03:27:03.173Z,-1.58
2022-12-14T03:28:06.278Z,-1.63
2022-12-14T03:29:03.212Z,-1.57
2022-12-14T03:30:03.204Z,-1.42
2022-12-14T03:31:05.223Z,-1.42
2022-12-14T03:32:03.335Z,-1.56
2022-12-14T03:33:03.172Z,-1.48
2022-12-14T03:34:06.241Z,-1.51
2022-12-14T03:35:03.189Z,-1.51
2022-12-14T03:36:03.170Z,-1.61
2022-12-14T03:37:04.236Z,-1.53
2022-12-14T03:38:03.171Z,-1.46
2022-12-14T03:39:05.153Z,-1.46
2022-12-14T03:40:03.189Z,-1.53
2022-12-14T03:41:03.193Z,-1.56
2022-12-14T03:42:03.184Z,-1.42
2022-12-14T03:43:03.177Z,-1.58
2022-12-14T03:44:03.229Z,-1.45
2022-12-14T03:45:06.221Z,-1.53
2022-12-14T03:46:03.385Z,-1.46
2022-12-14T03:47:03.247Z,-1.53
2022-12-14T03:48:03.209Z,-1.51
2022-12-14T03:49:03.218Z,-1.58
2022-12-14T03:50:06.292Z,-1.6
2022-12-14T03:51:03.195Z,-1.48
2022-12-14T03:52:03.196Z,-1.56
2022-12-14T03:53:03.263Z,-1.61
2022-12-14T03:54:03.790Z,-1.46
2022-12-14T03:55:03.212Z,-1.53
2022-12-14T03:56:12.256Z,-1.53
2022-12-14T03:57:03.233Z,-1.4
2022-12-14T03:58:03.209Z,-1.43
2022-12-14T03:59:03.245Z,-1.5
2022-12-14T04:00:03.223Z,-1.5
2022-12-14T04:01:06.260Z,-1.5
2022-12-14T04:02:06.610Z,-1.5
2022-12-14T04:03:03.451Z,-1.54
2022-12-14T04:04:03.242Z,-1.46
2022-12-14T04:05:03.222Z,-1.46
2022-12-14T04:06:03.260Z,-1.48
2022-12-14T04:07:03.206Z,-1.48
2022-12-14T04:08:03.211Z,-1.48
2022-12-14T04:09:03.567Z,-1.53
2022-12-14T04:10:03.212Z,-1.6
2022-12-14T04:11:03.219Z,-1.45
2022-12-14T04:12:06.309Z,-1.51
2022-12-14T04:13:03.250Z,-1.5
2022-12-14T04:14:03.256Z,-1.48
2022-12-14T04:15:03.265Z,-1.57
2022-12-14T04:16:03.227Z,-1.63
2022-12-14T04:17:03.271Z,-1.46
2022-12-14T04:18:03.234Z,-1.51
2022-12-14T04:19:04.845Z,-1.57
2022-12-14T04:20:03.252Z,-1.61
2022-12-14T04:21:03.268Z,-1.63
2022-12-14T04:22:03.265Z,-1.53
2022-12-14T04:23:06.235Z,-1.61
2022-12-14T04:24:03.284Z,-1.66
2022-12-14T04:25:03.252Z,-1.63
2022-12-14T04:26:03.242Z,-1.75
2022-12-14T04:27:03.247Z,-1.66
2022-12-14T04:28:03.263Z,-1.64
2022-12-14T04:29:03.301Z,-1.69
2022-12-14T04:30:04.292Z,-1.6
2022-12-14T04:31:03.260Z,-1.71
2022-12-14T04:32:03.596Z,-1.74
2022-12-14T04:33:03.410Z,-1.69
2022-12-14T04:34:06.361Z,-1.68
2022-12-14T04:35:03.263Z,-1.72
2022-12-14T04:36:03.276Z,-1.71
2022-12-14T04:37:03.259Z,-1.76
2022-12-14T04:38:03.294Z,-1.75
2022-12-14T04:39:03.264Z,-1.78
2022-12-14T04:40:03.288Z,-1.79
2022-12-14T04:41:03.274Z,-1.76
2022-12-14T04:42:03.295Z,-1.72
2022-12-14T04:43:03.288Z,-1.72
2022-12-14T04:44:03.276Z,-1.82
2022-12-14T04:45:03.354Z,-1.71
2022-12-14T04:46:03.529Z,-1.75
2022-12-14T04:47:03.288Z,-1.78
2022-12-14T04:48:03.286Z,-1.86
2022-12-14T04:49:03.301Z,-1.84
2022-12-14T04:50:03.296Z,-1.82
2022-12-14T04:51:03.279Z,-1.79
2022-12-14T04:52:09.760Z,-1.76
2022-12-14T04:53:03.288Z,-1.86
2022-12-14T04:54:03.317Z,-1.86
2022-12-14T04:55:03.317Z,-1.84
2022-12-14T04:56:03.302Z,-1.78
2022-12-14T04:57:03.310Z,-1.92
2022-12-14T04:58:03.334Z,-1.87
2022-12-14T04:59:03.301Z,-1.84
2022-12-14T05:00:03.311Z,-1.79
2022-12-14T05:01:03.600Z,-1.74
2022-12-14T05:02:04.179Z,-1.87
2022-12-14T05:03:03.592Z,-1.76
2022-12-14T05:04:05.245Z,-1.79
2022-12-14T05:05:03.329Z,-1.79
2022-12-14T05:06:06.318Z,-1.87
2022-12-14T05:07:03.297Z,-1.93
2022-12-14T05:08:03.331Z,-1.79
2022-12-14T05:09:03.339Z,-1.81
2022-12-14T05:10:03.387Z,-1.81
2022-12-14T05:11:55.784Z,-1.76
2022-12-14T05:12:05.293Z,-1.75
2022-12-14T05:13:05.284Z,-1.74
2022-12-14T05:14:05.284Z,-1.71
2022-12-14T05:15:05.298Z,-1.72
2022-12-14T05:16:05.294Z,-1.74
2022-12-14T05:17:13.303Z,-1.71
2022-12-14T05:18:05.291Z,-1.71
2022-12-14T05:19:05.298Z,-1.66
2022-12-14T05:20:05.331Z,-1.74
2022-12-14T05:21:05.289Z,-1.75
2022-12-14T05:22:05.295Z,-1.76
2022-12-14T05:23:05.279Z,-1.76
2022-12-14T05:24:05.298Z,-1.75
2022-12-14T05:25:05.336Z,-1.71
2022-12-14T05:26:05.332Z,-1.74
2022-12-14T05:27:05.329Z,-1.76
2022-12-14T05:28:08.343Z,-1.71
2022-12-14T05:29:05.306Z,-1.74
2022-12-14T05:30:05.346Z,-1.86
2022-12-14T05:31:05.471Z,-1.72
2022-12-14T05:32:05.309Z,-1.76
2022-12-14T05:33:05.377Z,-1.82
2022-12-14T05:34:05.325Z,-1.81
2022-12-14T05:35:05.315Z,-1.79
2022-12-14T05:36:05.361Z,-1.81
2022-12-14T05:37:10.475Z,-1.72
2022-12-14T05:38:05.305Z,-1.78
2022-12-14T05:39:08.111Z,-1.76
2022-12-14T05:40:05.353Z,-1.78
2022-12-14T05:41:05.322Z,-1.74
2022-12-14T05:42:05.422Z,-1.79
2022-12-14T05:43:05.314Z,-1.75
2022-12-14T05:44:05.317Z,-1.78
2022-12-14T05:45:05.392Z,-1.79
2022-12-14T05:46:05.565Z,-1.74
2022-12-14T05:47:05.331Z,-1.71
2022-12-14T05:48:05.322Z,-1.79
2022-12-14T05:49:05.415Z,-1.81
2022-12-14T05:50:08.423Z,-1.76
2022-12-14T05:51:05.368Z,-1.74
2022-12-14T05:52:05.358Z,-1.78
2022-12-14T05:53:05.336Z,-1.72
2022-12-14T05:54:05.351Z,-1.71
2022-12-14T05:55:09.076Z,-1.68
2022-12-14T05:56:05.180Z,-1.64
2022-12-14T05:57:05.365Z,-1.81
2022-12-14T05:58:05.362Z,-1.72
2022-12-14T05:59:05.382Z,-1.78
2022-12-14T06:00:05.384Z,-1.68
2022-12-14T06:01:10.609Z,-1.64
2022-12-14T06:02:05.940Z,-1.72
2022-12-14T06:03:05.512Z,-1.66
2022-12-14T06:04:05.528Z,-1.76
2022-12-14T06:05:05.495Z,-1.68
2022-12-14T06:06:05.361Z,-1.64
2022-12-14T06:07:05.360Z,-1.68
2022-12-14T06:08:05.380Z,-1.81
2022-12-14T06:09:05.347Z,-1.71
2022-12-14T06:10:05.382Z,-1.66
2022-12-14T06:11:05.363Z,-1.72
2022-12-14T06:12:08.191Z,-1.64
2022-12-14T06:13:05.364Z,-1.66
2022-12-14T06:14:05.406Z,-1.61
2022-12-14T06:15:06.224Z,-1.69
2022-12-14T06:16:05.475Z,-1.66
2022-12-14T06:17:05.388Z,-1.63
2022-12-14T06:18:05.371Z,-1.66
2022-12-14T06:19:05.401Z,-1.6
2022-12-14T06:20:05.408Z,-1.64
2022-12-14T06:21:05.479Z,-1.63
2022-12-14T06:22:05.390Z,-1.63
2022-12-14T06:23:08.403Z,-1.57
2022-12-14T06:24:08.767Z,-1.61
2022-12-14T06:25:05.412Z,-1.6
2022-12-14T06:26:05.395Z,-1.6
2022-12-14T06:27:05.397Z,-1.58
2022-12-14T06:28:08.394Z,-1.54
2022-12-14T06:29:05.391Z,-1.54
2022-12-14T06:30:05.440Z,-1.45
2022-12-14T06:31:05.600Z,-1.56
2022-12-14T06:32:05.409Z,-1.61
2022-12-14T06:33:05.391Z,-1.58
2022-12-14T06:34:08.588Z,-1.5
2022-12-14T06:35:05.431Z,-1.51
2022-12-14T06:36:05.435Z,-1.43
2022-12-14T06:37:05.427Z,-1.54
2022-12-14T06:38:05.410Z,-1.42
2022-12-14T06:39:08.498Z,-1.5
2022-12-14T06:40:05.455Z,-1.48
2022-12-14T06:41:05.413Z,-1.48
2022-12-14T06:42:05.407Z,-1.46
2022-12-14T06:43:05.416Z,-1.45
2022-12-14T06:44:05.465Z,-1.5
2022-12-14T06:45:08.313Z,-1.5
2022-12-14T06:46:09.899Z,-1.4
2022-12-14T06:47:05.484Z,-1.39
2022-12-14T06:48:05.412Z,-1.39
2022-12-14T06:49:05.408Z,-1.43
2022-12-14T06:50:07.196Z,-1.35
2022-12-14T06:51:05.428Z,-1.38
2022-12-14T06:52:06.487Z,-1.35
2022-12-14T06:53:05.480Z,-1.35
2022-12-14T06:54:05.534Z,-1.43
2022-12-14T06:55:05.469Z,-1.4
2022-12-14T06:56:05.472Z,-1.48
2022-12-14T06:57:05.446Z,-1.39
2022-12-14T06:58:05.419Z,-1.45
2022-12-14T06:59:05.449Z,-1.42
2022-12-14T07:00:05.468Z,-1.36
2022-12-14T07:01:08.922Z,-1.39
2022-12-14T07:02:05.945Z,-1.35
2022-12-14T07:03:06.077Z,-1.29
2022-12-14T07:04:05.445Z,-1.29
2022-12-14T07:05:05.476Z,-1.35
2022-12-14T07:06:05.454Z,-1.39
2022-12-14T07:07:05.450Z,-1.35
2022-12-14T07:08:05.464Z,-1.39
2022-12-14T07:09:06.553Z,-1.25
2022-12-14T07:10:05.496Z,-1.33
2022-12-14T07:11:07.283Z,-1.36
2022-12-14T07:12:05.479Z,-1.36
2022-12-14T07:13:05.471Z,-1.29
2022-12-14T07:14:05.476Z,-1.3
2022-12-14T07:15:05.483Z,-1.32
2022-12-14T07:16:05.768Z,-1.3
2022-12-14T07:17:08.570Z,-1.35
2022-12-14T07:18:05.466Z,-1.39
2022-12-14T07:19:05.457Z,-1.36
2022-12-14T07:20:05.501Z,-1.38
2022-12-14T07:21:05.467Z,-1.36
2022-12-14T07:22:05.472Z,-1.32
2022-12-14T07:23:05.481Z,-1.29
2022-12-14T07:24:05.470Z,-1.32
2022-12-14T07:25:05.529Z,-1.17
2022-12-14T07:26:05.495Z,-1.22
2022-12-14T07:27:05.719Z,-1.25
2022-12-14T07:28:08.590Z,-1.24
2022-12-14T07:29:05.484Z,-1.21
2022-12-14T07:30:05.536Z,-1.17
2022-12-14T07:31:05.934Z,-1.25
2022-12-14T07:32:05.511Z,-1.22
2022-12-14T07:33:08.328Z,-1.18
2022-12-14T07:34:05.324Z,-1.19
2022-12-14T07:35:05.534Z,-1.15
2022-12-14T07:36:05.476Z,-1.12
2022-12-14T07:37:05.489Z,-1.17
2022-12-14T07:38:05.540Z,-1.04
2022-12-14T07:39:05.509Z,-1.11
2022-12-14T07:40:05.509Z,-1.18
2022-12-14T07:41:05.901Z,-1.11
2022-12-14T07:42:05.515Z,-1.12
2022-12-14T07:43:05.512Z,-1.14
2022-12-14T07:44:07.812Z,-1.15
2022-12-14T07:45:05.546Z,-1.03
2022-12-14T07:46:05.986Z,-1.11
2022-12-14T07:47:05.588Z,-1.07
2022-12-14T07:48:05.505Z,-1.09
2022-12-14T07:49:05.766Z,-1.04
2022-12-14T07:50:05.533Z,-1.04
2022-12-14T07:51:05.926Z,-1.01
2022-12-14T07:52:05.522Z,-1.04
2022-12-14T07:53:05.517Z,-1.04
2022-12-14T07:54:05.545Z,-0.93
2022-12-14T07:55:06.916Z,-0.42
2022-12-14T07:56:05.905Z,-0.63
2022-12-14T07:57:05.551Z,-0.77
2022-12-14T07:58:05.519Z,-0.78
2022-12-14T07:59:05.534Z,-0.84
2022-12-14T08:00:05.574Z,-0.81
2022-12-14T08:01:05.813Z,-0.96
2022-12-14T08:02:06.021Z,-0.8
2022-12-14T08:03:05.546Z,-0.82
2022-12-14T08:04:05.667Z,-0.78
2022-12-14T08:05:12.728Z,-0.84
2022-12-14T08:06:08.433Z,-0.87
2022-12-14T08:07:05.535Z,-0.99
2022-12-14T08:08:05.554Z,-0.81
2022-12-14T08:09:05.554Z,-0.93
2022-12-14T08:10:05.627Z,-0.97
2022-12-14T08:11:08.791Z,-0.93
2022-12-14T08:12:05.541Z,-0.82
2022-12-14T08:13:05.646Z,-0.87
2022-12-14T08:14:05.559Z,-0.81
2022-12-14T08:15:05.598Z,-0.84
2022-12-14T08:16:06.174Z,-1
2022-12-14T08:17:08.345Z,-0.89
2022-12-14T08:18:05.544Z,-0.94
2022-12-14T08:19:05.610Z,-0.82
2022-12-14T08:20:05.555Z,-0.96
2022-12-14T08:21:05.893Z,-0.93
2022-12-14T08:22:05.622Z,-0.94
2022-12-14T08:23:05.565Z,-0.84
2022-12-14T08:24:05.552Z,-0.97
2022-12-14T08:25:05.584Z,-0.77
2022-12-14T08:26:05.891Z,-0.89
2022-12-14T08:27:05.687Z,-0.85
2022-12-14T08:28:08.394Z,-0.87
2022-12-14T08:29:05.603Z,-0.87
2022-12-14T08:30:05.582Z,-0.85
2022-12-14T08:31:06.248Z,-0.8
2022-12-14T08:32:05.598Z,-0.67
2022-12-14T08:33:05.592Z,-0.85
2022-12-14T08:34:05.681Z,-0.72
2022-12-14T08:35:05.588Z,-0.72
2022-12-14T08:36:05.941Z,-0.64
2022-12-14T08:37:05.617Z,-0.72
2022-12-14T08:38:08.302Z,-0.7
2022-12-14T08:39:08.410Z,-0.66
2022-12-14T08:40:05.640Z,-0.75
2022-12-14T08:41:05.893Z,-0.66
2022-12-14T08:42:05.596Z,-0.64
2022-12-14T08:43:05.588Z,-0.64
2022-12-14T08:44:05.615Z,-0.53
2022-12-14T08:45:05.627Z,-0.62
2022-12-14T08:46:05.615Z,-0.6
2022-12-14T08:47:05.891Z,-0.6
2022-12-14T08:48:05.626Z,-0.62
2022-12-14T08:49:05.608Z,-0.62
2022-12-14T08:50:08.650Z,-0.59
2022-12-14T08:51:05.655Z,-0.64
2022-12-14T08:52:05.622Z,-0.56
2022-12-14T08:53:05.678Z,-0.66
2022-12-14T08:54:05.614Z,-0.67
2022-12-14T08:55:08.725Z,-0.56
2022-12-14T08:56:05.630Z,-0.56
2022-12-14T08:57:05.632Z,-0.48
2022-12-14T08:58:05.618Z,-0.41
2022-12-14T08:59:05.647Z,-0.44
2022-12-14T09:00:07.064Z,-0.42
2022-12-14T09:01:09.001Z,-0.35
2022-12-14T09:02:06.236Z,-0.41
2022-12-14T09:03:06.073Z,-0.49
2022-12-14T09:04:05.721Z,-0.42
2022-12-14T09:05:05.635Z,-0.35
2022-12-14T09:06:07.242Z,-0.31
2022-12-14T09:07:05.645Z,-0.27
2022-12-14T09:08:05.635Z,-0.28
2022-12-14T09:09:08.134Z,-0.33
2022-12-14T09:10:05.665Z,-0.31
2022-12-14T09:11:05.665Z,-0.24
2022-12-14T09:12:08.693Z,-0.28
2022-12-14T09:13:05.651Z,-0.33
2022-12-14T09:14:05.657Z,-0.35
2022-12-14T09:15:05.645Z,-0.27
2022-12-14T09:16:05.912Z,-0.28
2022-12-14T09:17:08.696Z,-0.3
2022-12-14T09:18:05.629Z,-0.24
2022-12-14T09:19:05.668Z,-0.23
2022-12-14T09:20:05.664Z,-0.27
2022-12-14T09:21:05.670Z,-0.21
2022-12-14T09:22:05.897Z,-0.21
2022-12-14T09:23:05.692Z,-0.26
2022-12-14T09:24:05.645Z,-0.2
2022-12-14T09:25:05.649Z,-0.15
2022-12-14T09:26:05.735Z,-0.24
2022-12-14T09:27:05.663Z,-0.27
2022-12-14T09:28:08.752Z,-0.27
2022-12-14T09:29:05.687Z,-0.35
2022-12-14T09:30:05.676Z,-0.39
2022-12-14T09:31:05.730Z,-0.27
2022-12-14T09:32:05.922Z,-0.36
2022-12-14T09:33:05.690Z,-0.49
2022-12-14T09:34:05.684Z,-0.46
2022-12-14T09:35:05.678Z,-0.42
2022-12-14T09:36:05.720Z,-0.33
2022-12-14T09:37:05.679Z,-0.38
2022-12-14T09:38:05.711Z,-0.39
2022-12-14T09:39:05.693Z,-0.42
2022-12-14T09:40:05.711Z,0.08
2022-12-14T09:41:09.561Z,-0.15
2022-12-14T09:42:06.060Z,-0.18
2022-12-14T09:43:05.686Z,-0.18
2022-12-14T09:44:11.739Z,-0.24
2022-12-14T09:45:05.717Z,-0.15
2022-12-14T09:46:05.915Z,-0.21
2022-12-14T09:47:05.717Z,-0.2
2022-12-14T09:48:05.706Z,-0.35
2022-12-14T09:49:05.706Z,-0.2
2022-12-14T09:50:05.714Z,-0.45
2022-12-14T09:51:06.001Z,-0.42
2022-12-14T09:52:05.701Z,-0.35
2022-12-14T09:53:05.701Z,-0.26
2022-12-14T09:54:07.487Z,-0.51
2022-12-14T09:55:08.767Z,-0.45
2022-12-14T09:56:05.732Z,-0.44
2022-12-14T09:57:05.726Z,-0.46
2022-12-14T09:58:05.713Z,-0.46
2022-12-14T09:59:05.711Z,-0.48
2022-12-14T10:00:08.707Z,-0.53
2022-12-14T10:01:05.982Z,-0.54
2022-12-14T10:02:36.671Z,-0.6
2022-12-14T10:03:11.597Z,-0.59
2022-12-14T10:04:06.223Z,-0.56
2022-12-14T10:05:05.737Z,-0.57
2022-12-14T10:06:05.746Z,-0.53
2022-12-14T10:07:05.738Z,-0.62
2022-12-14T10:08:05.736Z,-0.56
2022-12-14T10:09:05.755Z,-0.69
2022-12-14T10:10:05.752Z,-0.66
2022-12-14T10:11:08.803Z,-0.56
2022-12-14T10:12:05.752Z,-0.56
2022-12-14T10:13:05.747Z,-0.56
2022-12-14T10:14:05.770Z,-0.64
2022-12-14T10:15:05.760Z,-0.78
2022-12-14T10:16:05.946Z,-0.67
2022-12-14T10:17:06.109Z,-0.82
2022-12-14T10:18:05.780Z,-0.84
2022-12-14T10:19:08.529Z,-0.93
2022-12-14T10:20:05.772Z,-1.01
2022-12-14T10:21:05.821Z,-0.97
2022-12-14T10:22:08.562Z,-0.82
2022-12-14T10:23:05.759Z,-0.99
2022-12-14T10:24:05.755Z,-0.91
2022-12-14T10:25:05.755Z,-0.93
2022-12-14T10:26:05.797Z,-0.93
2022-12-14T10:27:05.770Z,-0.8
2022-12-14T10:28:15.787Z,-0.94
2022-12-14T10:29:06.499Z,-0.81
2022-12-14T10:30:05.797Z,-0.84
2022-12-14T10:31:05.840Z,-0.89
2022-12-14T10:32:06.106Z,-0.99
2022-12-14T10:33:08.827Z,-0.99
2022-12-14T10:34:12.163Z,-0.99
2022-12-14T10:35:05.786Z,-1
2022-12-14T10:36:05.822Z,-0.94
2022-12-14T10:37:05.806Z,-0.97
2022-12-14T10:38:05.778Z,-0.8
2022-12-14T10:39:05.803Z,-0.82
2022-12-14T10:40:32.821Z,-0.72
2022-12-14T10:41:05.817Z,-0.82
2022-12-14T10:42:05.787Z,-0.82
2022-12-14T10:43:05.870Z,-0.91
2022-12-14T10:44:08.901Z,-0.74
2022-12-14T10:45:45.260Z,-0.62
2022-12-14T10:46:14.371Z,-0.64
2022-12-14T10:47:06.040Z,-0.57
2022-12-14T10:48:05.809Z,-0.56
2022-12-14T10:49:05.873Z,-0.6
2022-12-14T10:50:05.795Z,-0.53
2022-12-14T10:51:05.792Z,-0.51
2022-12-14T10:52:05.830Z,-0.51
2022-12-14T10:53:05.807Z,-0.41
2022-12-14T10:54:05.844Z,-0.35
2022-12-14T10:55:08.886Z,-0.39
2022-12-14T10:56:06.131Z,-0.36
2022-12-14T10:57:06.118Z,-0.31
2022-12-14T10:58:05.911Z,-0.54
2022-12-14T10:59:05.799Z,-0.35
2022-12-14T11:00:22.718Z,-0.41
2022-12-14T11:01:06.023Z,-0.48
2022-12-14T11:02:06.877Z,-0.38
2022-12-14T11:03:06.352Z,-0.48
2022-12-14T11:04:05.862Z,-0.38
2022-12-14T11:05:05.817Z,-0.26
2022-12-14T11:06:08.690Z,-0.27
2022-12-14T11:07:05.850Z,-0.18
2022-12-14T11:08:05.827Z,-0.07
2022-12-14T11:09:05.834Z,-0.06
2022-12-14T11:10:05.836Z,-0.13
2022-12-14T11:11:05.877Z,-0.1
2022-12-14T11:12:06.160Z,-0.02
2022-12-14T11:13:05.836Z,-0.06
2022-12-14T11:14:05.833Z,0
2022-12-14T11:15:05.831Z,-0.07
2022-12-14T11:16:05.841Z,-0.03
2022-12-14T11:17:15.178Z,0.01
2022-12-14T11:18:06.596Z,-0.09
2022-12-14T11:19:05.869Z,-0.02
2022-12-14T11:20:05.852Z,-0.12
2022-12-14T11:21:05.881Z,-0.1
2022-12-14T11:22:06.325Z,-0.07
2022-12-14T11:23:05.855Z,-0.13
2022-12-14T11:24:05.837Z,-0.17
2022-12-14T11:25:05.864Z,-0.07
2022-12-14T11:26:05.848Z,-0.1
2022-12-14T11:27:05.914Z,-0.12
2022-12-14T11:28:08.998Z,-0.17
2022-12-14T11:29:05.915Z,-0.18
2022-12-14T11:30:05.895Z,-0.21
2022-12-14T11:31:06.213Z,-0.23
2022-12-14T11:32:05.885Z,-0.09
2022-12-14T11:33:08.683Z,-0.23
2022-12-14T11:34:05.891Z,-0.26
2022-12-14T11:35:05.937Z,-0.26
2022-12-14T11:36:05.872Z,-0.15
2022-12-14T11:37:05.893Z,-0.06
2022-12-14T11:38:05.879Z,-0.09
2022-12-14T11:39:08.987Z,-0.13
2022-12-14T11:40:05.883Z,-0.07
2022-12-14T11:41:14.433Z,-0.09
2022-12-14T11:42:05.924Z,-0.17
2022-12-14T11:43:05.920Z,-0.06
2022-12-14T11:44:08.727Z,-0.03
2022-12-14T11:45:05.881Z,-0.06
2022-12-14T11:46:06.099Z,0.06
2022-12-14T11:47:05.921Z,-0.03
2022-12-14T11:48:05.944Z,0
2022-12-14T11:49:05.900Z,-0.05
2022-12-14T11:50:05.875Z,0.11
2022-12-14T11:51:05.880Z,0.09
2022-12-14T11:52:05.936Z,0.08
2022-12-14T11:53:14.004Z,-0.02
2022-12-14T11:54:05.900Z,0.02
2022-12-14T11:55:08.904Z,0.12
2022-12-14T11:56:05.886Z,0.08
2022-12-14T11:57:05.935Z,0.18
2022-12-14T11:58:05.876Z,0.13
2022-12-14T11:59:05.887Z,0.15
2022-12-14T12:00:05.961Z,0.13
2022-12-14T12:01:05.929Z,0.09
2022-12-14T12:02:06.412Z,0.16
2022-12-14T12:03:06.220Z,0.18
2022-12-14T12:04:06.203Z,0.11
2022-12-14T12:05:05.924Z,0.13
2022-12-14T12:06:05.904Z,0.12
2022-12-14T12:07:09.147Z,0.12
2022-12-14T12:08:05.940Z,0.09
2022-12-14T12:09:05.923Z,0.11
2022-12-14T12:10:05.936Z,0.09
2022-12-14T12:11:10.090Z,0.15
2022-12-14T12:12:05.947Z,0.26
2022-12-14T12:13:05.932Z,0.23
2022-12-14T12:14:05.934Z,0.23
2022-12-14T12:15:05.933Z,0.23
2022-12-14T12:16:06.104Z,0.19
2022-12-14T12:17:05.950Z,0.18
2022-12-14T12:18:05.933Z,0.24
2022-12-14T12:19:14.740Z,0.11
2022-12-14T12:20:05.917Z,0.3
2022-12-14T12:21:05.934Z,0.19
2022-12-14T12:22:05.964Z,0.27
2022-12-14T12:23:05.931Z,0.24
2022-12-14T12:24:05.954Z,0.27
2022-12-14T12:25:37.566Z,0.19
2022-12-14T12:26:05.941Z,0.3
2022-12-14T12:27:08.844Z,0.29
2022-12-14T12:28:05.961Z,0.12
2022-12-14T12:29:06.013Z,0.18
2022-12-14T12:30:05.969Z,0.23
2022-12-14T12:31:13.380Z,0.33
2022-12-14T12:32:05.957Z,0.29
2022-12-14T12:33:05.940Z,0.2
2022-12-14T12:34:05.946Z,0.23
2022-12-14T12:35:15.954Z,0.2
2022-12-14T12:36:05.938Z,0.29
2022-12-14T12:37:35.994Z,0.27
2022-12-14T12:38:08.990Z,0.26
2022-12-14T12:39:06.000Z,0.29
2022-12-14T12:40:06.001Z,0.33
2022-12-14T12:41:05.978Z,0.3
2022-12-14T12:42:10.040Z,0.34
2022-12-14T12:43:06.026Z,0.4
2022-12-14T12:44:06.217Z,0.31
2022-12-14T12:45:05.987Z,0.3
2022-12-14T12:46:06.191Z,0.34
2022-12-14T12:47:47.006Z,0.33
2022-12-14T12:48:06.248Z,0.3
2022-12-14T12:49:09.008Z,0.4
2022-12-14T12:50:05.996Z,0.39
2022-12-14T12:51:05.986Z,0.37
2022-12-14T12:52:06.151Z,0.3
2022-12-14T12:53:08.761Z,0.42
2022-12-14T12:54:06.015Z,0.44
2022-12-14T12:55:06.017Z,0.44
2022-12-14T12:56:06.003Z,0.37
2022-12-14T12:57:06.012Z,0.42